createdAt,value
2017-11-21T00:00:47.880Z,97.11
2017-11-21T00:01:50.673Z,97.03
2017-11-21T00:02:53.399Z,97.05
2017-11-21T00:03:56.194Z,97.11
2017-11-21T00:04:59.377Z,97.03
2017-11-21T00:06:02.112Z,97.07
2017-11-21T00:07:04.893Z,96.98
2017-11-21T00:08:07.548Z,97.01
2017-11-21T00:09:10.545Z,97.12
2017-11-21T00:10:13.149Z,97.25
2017-11-21T00:11:16.257Z,97.30
2017-11-21T00:12:19.055Z,97.24
2017-11-21T00:13:21.941Z,97.09
2017-11-21T00:14:24.819Z,96.98
2017-11-21T00:15:27.612Z,96.98
2017-11-21T00:16:30.410Z,97.11
2017-11-21T00:17:33.804Z,97.08
2017-11-21T00:18:36.608Z,96.99
2017-11-21T00:19:39.422Z,97.01
2017-11-21T00:20:42.287Z,97.05
2017-11-21T00:21:45.160Z,96.86
2017-11-21T00:22:47.903Z,97.00
2017-11-21T00:23:51.153Z,96.91
2017-11-21T00:24:53.912Z,96.91
2017-11-21T00:25:56.731Z,96.79
2017-11-21T00:26:59.507Z,96.85
2017-11-21T00:28:02.325Z,97.04
2017-11-21T00:29:05.104Z,97.14
2017-11-21T00:30:08.408Z,97.13
2017-11-21T00:31:11.153Z,97.19
2017-11-21T00:32:13.930Z,97.22
2017-11-21T00:33:16.694Z,96.97
2017-11-21T00:34:19.492Z,96.92
2017-11-21T00:35:22.124Z,96.99
2017-11-21T00:36:25.071Z,96.86
2017-11-21T00:37:27.586Z,96.94
2017-11-21T00:38:30.512Z,96.85
2017-11-21T00:39:33.325Z,96.67
2017-11-21T00:40:36.152Z,96.71
2017-11-21T00:41:38.915Z,96.69
2017-11-21T00:42:42.699Z,96.37
2017-11-21T00:43:45.457Z,96.52
2017-11-21T00:44:48.173Z,96.50
2017-11-21T00:45:50.893Z,96.65
2017-11-21T00:46:53.416Z,96.75
2017-11-21T00:47:56.155Z,96.92
2017-11-21T00:48:59.152Z,96.94
2017-11-21T00:50:01.730Z,96.86
2017-11-21T00:51:04.268Z,96.96
2017-11-21T00:52:07.035Z,97.06
2017-11-21T00:53:09.857Z,97.12
2017-11-21T00:54:12.714Z,97.15
2017-11-21T00:55:15.808Z,97.15
2017-11-21T00:56:18.560Z,97.19
2017-11-21T00:57:21.308Z,97.04
2017-11-21T00:58:24.080Z,96.79
2017-11-21T00:59:26.864Z,96.88
2017-11-21T01:00:29.619Z,97.02
2017-11-21T01:01:32.799Z,96.95
2017-11-21T01:02:35.425Z,96.83
2017-11-21T01:03:38.082Z,96.92
2017-11-21T01:04:40.699Z,96.99
2017-11-21T01:05:43.481Z,96.90
2017-11-21T01:06:46.288Z,97.02
2017-11-21T01:07:49.460Z,96.78
2017-11-21T01:08:52.272Z,96.82
2017-11-21T01:09:55.067Z,96.55
2017-11-21T01:10:57.821Z,96.39
2017-11-21T01:12:00.673Z,96.51
2017-11-21T01:13:03.448Z,96.58
2017-11-21T01:14:06.695Z,96.63
2017-11-21T01:15:09.732Z,96.67
2017-11-21T01:16:12.496Z,96.67
2017-11-21T01:17:15.394Z,96.66
2017-11-21T01:18:18.161Z,96.76
2017-11-21T01:19:21.086Z,96.59
2017-11-21T01:20:24.099Z,96.56
2017-11-21T01:21:26.873Z,96.71
2017-11-21T01:22:29.661Z,96.48
2017-11-21T01:23:32.355Z,96.63
2017-11-21T01:24:35.089Z,96.67
2017-11-21T01:25:37.727Z,96.71
2017-11-21T01:26:40.714Z,96.78
2017-11-21T01:27:43.257Z,96.81
2017-11-21T01:28:45.797Z,96.88
2017-11-21T01:29:48.328Z,96.55
2017-11-21T01:30:50.839Z,96.53
2017-11-21T01:31:53.432Z,96.65
2017-11-21T01:32:56.333Z,96.73
2017-11-21T01:33:58.919Z,96.77
2017-11-21T01:35:01.472Z,96.78
2017-11-21T01:36:04.271Z,96.91
2017-11-21T01:37:07.042Z,96.75
2017-11-21T01:38:10.061Z,96.80
2017-11-21T01:39:13.024Z,96.74
2017-11-21T01:40:15.769Z,96.58
2017-11-21T01:41:18.537Z,96.49
2017-11-21T01:42:21.315Z,96.15
2017-11-21T01:43:24.115Z,96.27
2017-11-21T01:44:26.736Z,96.51
2017-11-21T01:45:29.836Z,96.58
2017-11-21T01:46:32.609Z,96.58
2017-11-21T01:47:35.426Z,96.59
2017-11-21T01:48:38.177Z,96.59
2017-11-21T01:49:41.000Z,96.55
2017-11-21T01:50:43.796Z,96.44
2017-11-21T01:51:47.080Z,96.52
2017-11-21T01:52:49.857Z,96.13
2017-11-21T01:53:52.672Z,96.25
2017-11-21T01:54:55.441Z,96.36
2017-11-21T01:55:58.203Z,96.56
2017-11-21T01:57:00.984Z,96.59
2017-11-21T01:58:04.079Z,96.51
2017-11-21T01:59:06.873Z,96.41
2017-11-21T02:00:09.593Z,96.56
2017-11-21T02:01:12.355Z,96.57
2017-11-21T02:02:15.146Z,96.49
2017-11-21T02:03:17.985Z,96.41
2017-11-21T02:04:21.155Z,96.51
2017-11-21T02:05:23.936Z,96.01
2017-11-21T02:06:26.674Z,96.24
2017-11-21T02:07:29.487Z,96.46
2017-11-21T02:08:32.287Z,96.67
2017-11-21T02:09:35.211Z,96.37
2017-11-21T02:10:38.358Z,96.64
2017-11-21T02:11:41.124Z,96.25
2017-11-21T02:12:43.887Z,96.29
2017-11-21T02:13:46.649Z,96.44
2017-11-21T02:14:49.437Z,96.17
2017-11-21T02:15:52.308Z,96.25
2017-11-21T02:16:55.532Z,96.33
2017-11-21T02:17:58.324Z,96.31
2017-11-21T02:19:01.120Z,96.40
2017-11-21T02:20:03.935Z,96.24
2017-11-21T02:21:06.759Z,96.42
2017-11-21T02:22:09.532Z,96.20
2017-11-21T02:23:12.619Z,96.48
2017-11-21T02:24:15.368Z,96.57
2017-11-21T02:25:18.184Z,96.58
2017-11-21T02:26:21.003Z,96.64
2017-11-21T02:27:23.816Z,96.76
2017-11-21T02:28:26.563Z,96.78
2017-11-21T02:29:29.705Z,96.44
2017-11-21T02:30:32.397Z,96.16
2017-11-21T02:31:35.483Z,96.27
2017-11-21T02:32:38.101Z,96.33
2017-11-21T02:33:40.735Z,96.28
2017-11-21T02:34:43.389Z,96.46
2017-11-21T02:35:46.355Z,96.43
2017-11-21T02:36:49.004Z,96.64
2017-11-21T02:37:51.644Z,96.21
2017-11-21T02:38:54.270Z,96.17
2017-11-21T02:39:56.870Z,96.37
2017-11-21T02:40:59.474Z,96.34
2017-11-21T02:42:02.662Z,96.05
2017-11-21T02:43:05.306Z,95.96
2017-11-21T02:44:07.928Z,95.99
2017-11-21T02:45:10.595Z,96.21
2017-11-21T02:46:13.241Z,96.00
2017-11-21T02:47:15.884Z,96.12
2017-11-21T02:48:19.056Z,96.09
2017-11-21T02:49:21.690Z,96.16
2017-11-21T02:50:24.309Z,96.25
2017-11-21T02:51:26.894Z,96.41
2017-11-21T02:52:29.480Z,96.45
2017-11-21T02:53:32.058Z,96.47
2017-11-21T02:54:35.097Z,96.39
2017-11-21T02:55:38.037Z,96.29
2017-11-21T02:56:40.675Z,96.29
2017-11-21T02:57:43.348Z,96.17
2017-11-21T02:58:45.941Z,95.96
2017-11-21T02:59:48.617Z,95.70
2017-11-21T03:00:51.643Z,96.03
2017-11-21T03:01:54.262Z,96.11
2017-11-21T03:02:56.862Z,95.93
2017-11-21T03:03:59.541Z,96.07
2017-11-21T03:05:02.165Z,96.08
2017-11-21T03:06:04.826Z,95.92
2017-11-21T03:07:07.833Z,96.12
2017-11-21T03:08:10.475Z,96.19
2017-11-21T03:09:13.103Z,95.66
2017-11-21T03:10:15.742Z,96.00
2017-11-21T03:11:18.353Z,96.21
2017-11-21T03:12:20.995Z,96.37
2017-11-21T03:13:24.062Z,96.38
2017-11-21T03:14:26.703Z,96.23
2017-11-21T03:15:29.299Z,96.50
2017-11-21T03:16:31.913Z,96.58
2017-11-21T03:17:34.537Z,96.45
2017-11-21T03:18:37.203Z,96.49
2017-11-21T03:19:40.271Z,96.43
2017-11-21T03:20:43.005Z,96.33
2017-11-21T03:21:45.643Z,96.30
2017-11-21T03:22:48.289Z,96.31
2017-11-21T03:23:50.909Z,96.37
2017-11-21T03:24:53.574Z,96.45
2017-11-21T03:25:56.549Z,96.05
2017-11-21T03:26:59.360Z,95.82
2017-11-21T03:28:02.025Z,95.99
2017-11-21T03:29:04.679Z,95.95
2017-11-21T03:30:07.302Z,95.96
2017-11-21T03:31:10.011Z,96.15
2017-11-21T03:32:13.208Z,96.39
2017-11-21T03:33:15.783Z,96.53
2017-11-21T03:34:18.356Z,96.50
2017-11-21T03:35:20.899Z,96.49
2017-11-21T03:36:24.167Z,96.63
2017-11-21T03:37:26.719Z,96.72
2017-11-21T03:38:29.770Z,96.75
2017-11-21T03:39:32.418Z,96.90
2017-11-21T03:40:35.066Z,96.76
2017-11-21T03:41:37.691Z,96.86
2017-11-21T03:42:40.313Z,96.86
2017-11-21T03:43:42.945Z,96.84
2017-11-21T03:44:45.993Z,96.65
2017-11-21T03:45:48.621Z,96.63
2017-11-21T03:46:51.232Z,96.70
2017-11-21T03:47:53.854Z,96.70
2017-11-21T03:48:56.501Z,96.71
2017-11-21T03:49:59.109Z,96.66
2017-11-21T03:51:02.241Z,96.67
2017-11-21T03:52:05.113Z,96.55
2017-11-21T03:53:07.726Z,96.36
2017-11-21T03:54:10.380Z,96.39
2017-11-21T03:55:12.978Z,96.51
2017-11-21T03:56:15.712Z,96.71
2017-11-21T03:57:18.794Z,96.67
2017-11-21T03:58:21.447Z,96.69
2017-11-21T03:59:24.066Z,96.76
2017-11-21T04:00:26.666Z,96.81
2017-11-21T04:01:29.311Z,96.63
2017-11-21T04:02:31.996Z,96.76
2017-11-21T04:03:34.997Z,96.79
2017-11-21T04:04:37.610Z,96.76
2017-11-21T04:05:40.265Z,96.88
2017-11-21T04:06:42.946Z,96.88
2017-11-21T04:07:45.591Z,96.57
2017-11-21T04:08:48.206Z,96.62
2017-11-21T04:09:51.238Z,96.69
2017-11-21T04:10:53.873Z,96.67
2017-11-21T04:11:56.484Z,96.62
2017-11-21T04:12:59.126Z,96.63
2017-11-21T04:14:01.766Z,96.64
2017-11-21T04:15:04.341Z,96.71
2017-11-21T04:16:07.441Z,96.79
2017-11-21T04:17:10.050Z,96.70
2017-11-21T04:18:12.753Z,96.73
2017-11-21T04:19:15.400Z,96.56
2017-11-21T04:20:18.087Z,96.59
2017-11-21T04:21:20.745Z,96.55
2017-11-21T04:22:23.916Z,96.61
2017-11-21T04:23:26.561Z,96.69
2017-11-21T04:24:29.176Z,96.79
2017-11-21T04:25:31.828Z,96.94
2017-11-21T04:26:34.434Z,97.01
2017-11-21T04:27:37.077Z,97.03
2017-11-21T04:28:40.068Z,97.02
2017-11-21T04:29:42.726Z,97.08
2017-11-21T04:30:45.366Z,96.91
2017-11-21T04:31:47.981Z,97.02
2017-11-21T04:32:50.682Z,97.07
2017-11-21T04:33:53.330Z,97.16
2017-11-21T04:34:56.337Z,97.28
2017-11-21T04:35:58.971Z,97.28
2017-11-21T04:37:01.591Z,97.19
2017-11-21T04:38:04.276Z,97.13
2017-11-21T04:39:06.894Z,97.10
2017-11-21T04:40:09.530Z,97.16
2017-11-21T04:41:12.495Z,97.06
2017-11-21T04:42:15.138Z,97.15
2017-11-21T04:43:17.776Z,97.27
2017-11-21T04:44:20.423Z,97.28
2017-11-21T04:45:23.038Z,97.26
2017-11-21T04:46:25.702Z,97.33
2017-11-21T04:47:28.227Z,97.27
2017-11-21T04:48:30.773Z,97.38
2017-11-21T04:49:33.399Z,96.95
2017-11-21T04:50:36.059Z,97.00
2017-11-21T04:51:38.726Z,97.08
2017-11-21T04:52:41.706Z,97.23
2017-11-21T04:53:44.339Z,97.34
2017-11-21T04:54:46.999Z,97.27
2017-11-21T04:55:49.619Z,97.35
2017-11-21T04:56:52.244Z,97.39
2017-11-21T04:57:54.866Z,97.41
2017-11-21T04:58:58.789Z,97.47
2017-11-21T05:00:01.423Z,97.52
2017-11-21T05:15:11.925Z,97.88
2017-11-21T05:16:14.567Z,97.55
2017-11-21T05:17:17.247Z,97.46
2017-11-21T05:18:19.914Z,97.52
2017-11-21T05:19:22.558Z,97.69
2017-11-21T05:20:25.650Z,97.69
2017-11-21T05:21:29.035Z,97.60
2017-11-21T05:22:31.685Z,97.58
2017-11-21T05:23:34.304Z,97.63
2017-11-21T05:24:37.070Z,97.53
2017-11-21T05:25:39.714Z,97.56
2017-11-21T05:26:42.699Z,97.33
2017-11-21T05:27:45.336Z,97.44
2017-11-21T05:28:47.983Z,97.48
2017-11-21T05:29:50.592Z,97.21
2017-11-21T05:30:53.231Z,97.30
2017-11-21T05:31:55.850Z,97.25
2017-11-21T05:32:59.018Z,96.98
2017-11-21T05:34:01.655Z,96.89
2017-11-21T05:35:04.299Z,97.09
2017-11-21T05:36:06.930Z,97.17
2017-11-21T05:37:09.616Z,97.02
2017-11-21T05:38:12.217Z,97.17
2017-11-21T05:39:15.306Z,97.27
2017-11-21T05:40:17.926Z,97.26
2017-11-21T05:41:20.564Z,97.36
2017-11-21T05:42:23.185Z,97.22
2017-11-21T05:43:26.802Z,97.49
2017-11-21T05:44:29.458Z,97.57
2017-11-21T05:45:32.734Z,97.70
2017-11-21T05:46:35.391Z,97.74
2017-11-21T05:47:38.100Z,97.67
2017-11-21T05:48:40.727Z,97.65
2017-11-21T05:49:43.375Z,97.72
2017-11-21T05:50:46.001Z,97.71
2017-11-21T05:51:48.944Z,97.54
2017-11-21T05:52:51.500Z,97.55
2017-11-21T05:53:54.182Z,97.44
2017-11-21T05:54:56.866Z,97.46
2017-11-21T05:55:59.556Z,97.52
2017-11-21T05:57:02.223Z,97.53
2017-11-21T05:58:05.185Z,97.61
2017-11-21T05:59:07.866Z,97.58
2017-11-21T06:00:10.481Z,97.58
2017-11-21T06:01:13.113Z,97.60
2017-11-21T06:02:15.740Z,97.59
2017-11-21T06:03:18.374Z,97.54
2017-11-21T06:04:21.409Z,97.62
2017-11-21T06:05:24.017Z,97.47
2017-11-21T06:06:26.610Z,97.38
2017-11-21T06:07:29.196Z,97.31
2017-11-21T06:08:31.770Z,97.14
2017-11-21T06:09:34.383Z,97.27
2017-11-21T06:10:37.381Z,97.31
2017-11-21T06:11:39.958Z,97.40
2017-11-21T06:12:42.540Z,97.21
2017-11-21T06:13:45.182Z,97.13
2017-11-21T06:14:47.785Z,97.18
2017-11-21T06:15:50.422Z,97.06
2017-11-21T06:16:53.415Z,97.14
2017-11-21T06:17:56.034Z,97.27
2017-11-21T06:18:58.642Z,97.13
2017-11-21T06:20:01.287Z,97.17
2017-11-21T06:21:03.908Z,96.99
2017-11-21T06:22:06.583Z,97.20
2017-11-21T06:23:09.706Z,97.18
2017-11-21T06:25:31.647Z,97.04
2017-11-21T06:26:34.292Z,97.04
2017-11-21T06:27:36.940Z,96.90
2017-11-21T06:28:39.561Z,96.93
2017-11-21T06:29:42.254Z,96.90
2017-11-21T06:30:44.924Z,96.90
2017-11-21T06:31:48.000Z,96.94
2017-11-21T06:32:50.639Z,97.00
2017-11-21T06:33:53.291Z,96.87
2017-11-21T06:34:55.920Z,96.76
2017-11-21T06:35:58.590Z,96.85
2017-11-21T06:37:01.234Z,96.82
2017-11-21T06:38:03.887Z,96.91
2017-11-21T06:39:06.507Z,96.97
2017-11-21T06:40:09.203Z,97.03
2017-11-21T06:41:11.833Z,97.02
2017-11-21T06:42:14.506Z,97.11
2017-11-21T06:43:17.146Z,97.13
2017-11-21T06:44:19.878Z,97.14
2017-11-21T06:45:22.768Z,96.67
2017-11-21T06:46:25.468Z,96.93
2017-11-21T06:47:28.266Z,96.78
2017-11-21T06:48:30.975Z,96.72
2017-11-21T06:49:33.674Z,96.85
2017-11-21T06:50:36.337Z,96.93
2017-11-21T06:51:39.037Z,96.97
2017-11-21T06:52:42.331Z,96.87
2017-11-21T06:53:45.023Z,96.64
2017-11-21T06:54:47.995Z,96.70
2017-11-21T06:55:50.628Z,96.63
2017-11-21T06:56:53.289Z,96.69
2017-11-21T06:57:55.957Z,96.79
2017-11-21T06:58:58.646Z,96.87
2017-11-21T07:00:01.347Z,96.79
2017-11-21T07:01:04.560Z,96.83
2017-11-21T07:02:07.261Z,96.86
2017-11-21T07:03:09.926Z,96.98
2017-11-21T07:04:12.630Z,96.61
2017-11-21T07:05:15.293Z,96.52
2017-11-21T07:06:17.945Z,96.41
2017-11-21T07:07:21.001Z,96.49
2017-11-21T07:08:23.628Z,96.51
2017-11-21T07:09:26.393Z,96.41
2017-11-21T07:10:29.048Z,96.58
2017-11-21T07:11:31.716Z,96.10
2017-11-21T07:12:34.356Z,96.18
2017-11-21T07:13:37.430Z,96.37
2017-11-21T07:14:40.132Z,96.46
2017-11-21T07:15:42.781Z,96.59
2017-11-21T07:16:45.476Z,96.52
2017-11-21T07:17:48.137Z,96.45
2017-11-21T07:18:51.818Z,96.60
2017-11-21T07:19:54.874Z,96.39
2017-11-21T07:20:57.546Z,96.50
2017-11-21T07:22:00.245Z,96.46
2017-11-21T07:23:02.925Z,96.60
2017-11-21T07:24:05.546Z,96.35
2017-11-21T07:25:08.173Z,96.50
2017-11-21T07:26:11.249Z,96.55
2017-11-21T07:27:14.027Z,96.38
2017-11-21T07:28:16.680Z,96.43
2017-11-21T07:29:19.299Z,96.51
2017-11-21T07:30:21.927Z,96.56
2017-11-21T07:31:24.620Z,96.75
2017-11-21T07:32:27.739Z,96.56
2017-11-21T07:33:30.379Z,96.61
2017-11-21T07:34:33.041Z,96.50
2017-11-21T07:35:35.698Z,96.52
2017-11-21T07:36:38.349Z,96.59
2017-11-21T07:37:41.038Z,96.30
2017-11-21T07:38:44.760Z,96.43
2017-11-21T07:39:47.365Z,96.47
2017-11-21T07:40:49.919Z,96.53
2017-11-21T07:41:52.565Z,96.56
2017-11-21T07:42:55.264Z,96.04
2017-11-21T07:43:57.915Z,96.12
2017-11-21T07:45:01.007Z,96.42
2017-11-21T07:46:03.677Z,96.42
2017-11-21T07:47:06.378Z,96.45
2017-11-21T07:48:09.278Z,96.48
2017-11-21T07:49:12.296Z,96.65
2017-11-21T07:50:14.962Z,96.71
2017-11-21T07:51:18.078Z,96.50
2017-11-21T07:52:20.740Z,96.02
2017-11-21T07:53:23.388Z,96.32
2017-11-21T07:54:26.028Z,96.18
2017-11-21T07:55:28.677Z,96.37
2017-11-21T07:56:31.225Z,96.28
2017-11-21T07:57:34.029Z,96.47
2017-11-21T07:58:36.709Z,96.48
2017-11-21T07:59:39.387Z,96.46
2017-11-21T08:00:42.028Z,96.76
2017-11-21T08:01:44.732Z,96.66
2017-11-21T08:02:47.345Z,96.43
2017-11-21T08:03:50.473Z,96.58
2017-11-21T08:04:53.418Z,96.47
2017-11-21T08:05:56.173Z,96.60
2017-11-21T08:06:58.928Z,96.20
2017-11-21T08:08:01.764Z,96.01
2017-11-21T08:09:04.630Z,96.23
2017-11-21T08:10:08.592Z,96.22
2017-11-21T08:11:11.372Z,96.15
2017-11-21T08:12:14.329Z,96.04
2017-11-21T08:13:17.646Z,96.16
2017-11-21T08:14:20.453Z,96.32
2017-11-21T08:15:23.149Z,96.47
2017-11-21T08:16:26.234Z,96.38
2017-11-21T08:17:29.453Z,96.58
2017-11-21T08:18:32.253Z,96.36
2017-11-21T08:19:35.062Z,96.16
2017-11-21T08:20:37.690Z,96.32
2017-11-21T08:21:40.252Z,96.52
2017-11-21T08:22:43.257Z,96.35
2017-11-21T08:23:46.032Z,96.51
2017-11-21T08:24:48.796Z,96.21
2017-11-21T08:25:51.480Z,96.32
2017-11-21T08:26:54.273Z,96.41
2017-11-21T08:27:57.076Z,96.49
2017-11-21T08:29:00.166Z,96.19
2017-11-21T08:30:03.760Z,96.29
2017-11-21T08:31:06.508Z,96.45
2017-11-21T08:32:10.412Z,96.34
2017-11-21T08:33:13.218Z,96.37
2017-11-21T08:34:16.051Z,96.52
2017-11-21T08:35:19.100Z,96.27
2017-11-21T08:36:21.804Z,96.36
2017-11-21T08:37:24.622Z,95.92
2017-11-21T08:38:27.405Z,95.93
2017-11-21T08:39:30.344Z,96.10
2017-11-21T08:40:33.241Z,96.01
2017-11-21T08:41:36.556Z,96.03
2017-11-21T08:42:39.405Z,96.10
2017-11-21T08:43:42.184Z,96.30
2017-11-21T08:44:44.960Z,96.35
2017-11-21T08:45:47.763Z,96.09
2017-11-21T08:46:50.492Z,95.79
2017-11-21T08:47:53.585Z,96.09
2017-11-21T08:48:56.551Z,95.57
2017-11-21T08:49:59.375Z,95.99
2017-11-21T08:51:03.054Z,96.16
2017-11-21T08:52:05.975Z,95.90
2017-11-21T08:53:08.869Z,96.19
2017-11-21T08:54:11.693Z,95.68
2017-11-21T08:55:14.555Z,96.24
2017-11-21T08:56:17.352Z,96.27
2017-11-21T08:57:19.986Z,96.18
2017-11-21T08:58:22.628Z,96.09
2017-11-21T08:59:25.561Z,95.67
2017-11-21T09:00:28.294Z,95.59
2017-11-21T09:01:30.946Z,96.10
2017-11-21T09:02:33.629Z,96.11
2017-11-21T09:03:36.527Z,96.14
2017-11-21T09:04:39.240Z,96.32
2017-11-21T09:05:42.494Z,95.87
2017-11-21T09:06:45.275Z,95.97
2017-11-21T09:07:47.937Z,95.68
2017-11-21T09:08:50.555Z,95.82
2017-11-21T09:09:53.128Z,95.96
2017-11-21T09:10:55.728Z,95.63
2017-11-21T09:11:58.631Z,96.00
2017-11-21T09:13:01.202Z,95.73
2017-11-21T09:14:03.821Z,96.03
2017-11-21T09:15:06.474Z,96.02
2017-11-21T09:16:09.020Z,96.21
2017-11-21T09:17:12.161Z,96.25
2017-11-21T09:18:15.357Z,96.04
2017-11-21T09:19:17.878Z,96.07
2017-11-21T09:20:21.100Z,95.64
2017-11-21T09:21:23.709Z,95.87
2017-11-21T09:22:26.280Z,96.09
2017-11-21T09:23:28.831Z,96.21
2017-11-21T09:24:31.746Z,96.12
2017-11-21T09:25:34.271Z,95.16
2017-11-21T09:26:36.823Z,95.75
2017-11-21T09:27:39.439Z,95.84
2017-11-21T09:28:41.912Z,95.95
2017-11-21T09:29:44.375Z,95.97
2017-11-21T09:30:47.932Z,96.10
2017-11-21T09:31:50.383Z,96.31
2017-11-21T09:32:53.121Z,96.04
2017-11-21T09:33:55.598Z,96.30
2017-11-21T09:34:58.116Z,96.04
2017-11-21T09:36:00.630Z,96.13
2017-11-21T09:37:03.845Z,96.54
2017-11-21T09:38:06.369Z,96.29
2017-11-21T09:39:08.901Z,96.36
2017-11-21T09:40:11.498Z,96.21
2017-11-21T09:41:14.161Z,95.99
2017-11-21T09:42:16.745Z,95.75
2017-11-21T09:43:19.315Z,95.72
2017-11-21T09:44:21.921Z,95.93
2017-11-21T09:45:24.462Z,96.37
2017-11-21T09:46:27.088Z,96.37
2017-11-21T09:47:29.737Z,96.18
2017-11-21T09:48:32.354Z,95.97
2017-11-21T09:49:34.894Z,96.44
2017-11-21T09:50:37.577Z,96.36
2017-11-21T09:51:40.168Z,96.57
2017-11-21T09:52:42.809Z,96.23
2017-11-21T09:53:45.454Z,96.13
2017-11-21T09:54:48.024Z,96.41
2017-11-21T09:55:50.600Z,96.34
2017-11-21T09:56:53.359Z,96.42
2017-11-21T09:57:55.905Z,96.49
2017-11-21T09:58:58.789Z,96.75
2017-11-21T10:00:01.382Z,96.80
2017-11-21T10:01:03.991Z,96.73
2017-11-21T10:02:06.598Z,96.79
2017-11-21T10:03:09.241Z,96.76
2017-11-21T10:04:11.940Z,96.77
2017-11-21T10:05:14.995Z,96.60
2017-11-21T10:06:17.674Z,96.72
2017-11-21T10:07:20.467Z,96.83
2017-11-21T10:08:23.096Z,96.68
2017-11-21T10:09:25.753Z,96.14
2017-11-21T10:10:28.413Z,95.86
2017-11-21T10:11:31.427Z,95.72
2017-11-21T10:12:34.105Z,96.11
2017-11-21T10:13:36.712Z,96.27
2017-11-21T10:14:39.414Z,96.34
2017-11-21T10:15:41.977Z,95.87
2017-11-21T10:16:44.635Z,96.46
2017-11-21T10:17:47.724Z,96.35
2017-11-21T10:18:50.368Z,96.35
2017-11-21T10:19:53.106Z,96.19
2017-11-21T10:20:55.671Z,95.93
2017-11-21T10:21:58.306Z,96.36
2017-11-21T10:23:01.113Z,96.30
2017-11-21T10:24:04.189Z,96.45
2017-11-21T10:25:06.878Z,95.91
2017-11-21T10:26:09.511Z,96.49
2017-11-21T10:27:12.648Z,96.66
2017-11-21T10:28:15.352Z,96.85
2017-11-21T10:29:17.980Z,96.76
2017-11-21T10:30:20.951Z,96.39
2017-11-21T10:32:37.531Z,95.68
2017-11-21T10:33:40.263Z,95.69
2017-11-21T10:34:43.095Z,95.76
2017-11-21T10:35:45.699Z,95.63
2017-11-21T10:36:48.315Z,95.90
2017-11-21T10:37:50.858Z,96.12
2017-11-21T10:38:53.879Z,96.14
2017-11-21T10:39:56.539Z,95.88
2017-11-21T10:40:59.196Z,96.01
2017-11-21T10:42:02.218Z,96.19
2017-11-21T10:43:04.922Z,95.80
2017-11-21T10:44:07.551Z,95.97
2017-11-21T10:45:10.222Z,96.29
2017-11-21T10:46:12.865Z,96.12
2017-11-21T10:47:15.673Z,96.17
2017-11-21T10:48:18.369Z,96.03
2017-11-21T10:49:21.014Z,96.18
2017-11-21T10:50:23.709Z,96.23
2017-11-21T10:51:26.830Z,96.09
2017-11-21T10:52:29.534Z,96.06
2017-11-21T10:53:32.193Z,96.12
2017-11-21T10:54:34.863Z,96.12
2017-11-21T10:55:38.205Z,96.08
2017-11-21T10:56:41.089Z,96.34
2017-11-21T10:57:44.324Z,96.34
2017-11-21T10:58:47.043Z,96.49
2017-11-21T11:15:23.890Z,96.17
2017-11-21T11:16:26.543Z,95.74
2017-11-21T11:17:29.296Z,96.29
2017-11-21T11:18:32.206Z,95.92
2017-11-21T11:19:34.931Z,95.88
2017-11-21T11:20:38.083Z,96.02
2017-11-21T11:21:40.767Z,96.12
2017-11-21T11:22:43.651Z,96.27
2017-11-21T11:23:46.336Z,96.12
2017-11-21T11:24:49.021Z,96.42
2017-11-21T11:25:51.838Z,96.26
2017-11-21T11:26:54.851Z,96.19
2017-11-21T11:27:57.469Z,96.11
2017-11-21T11:29:00.158Z,95.96
2017-11-21T11:30:02.780Z,96.06
2017-11-21T11:31:05.502Z,96.36
2017-11-21T11:32:08.170Z,96.57
2017-11-21T11:33:11.414Z,96.38
2017-11-21T11:34:14.135Z,96.56
2017-11-21T11:35:16.795Z,96.72
2017-11-21T11:36:19.515Z,95.96
2017-11-21T11:37:22.147Z,96.35
2017-11-21T11:38:24.899Z,96.23
2017-11-21T11:39:27.881Z,96.59
2017-11-21T11:40:30.559Z,96.29
2017-11-21T11:41:33.195Z,96.10
2017-11-21T11:42:35.796Z,96.00
2017-11-21T11:43:38.715Z,96.22
2017-11-21T11:44:41.436Z,96.26
2017-11-21T11:45:44.626Z,96.47
2017-11-21T11:46:47.330Z,96.45
2017-11-21T11:47:49.976Z,96.36
2017-11-21T11:48:52.660Z,96.22
2017-11-21T11:49:55.311Z,96.43
2017-11-21T11:50:57.996Z,96.21
2017-11-21T11:52:00.653Z,96.06
2017-11-21T11:53:03.625Z,96.42
2017-11-21T11:54:06.278Z,96.36
2017-11-21T11:55:09.335Z,96.27
2017-11-21T11:56:11.978Z,96.11
2017-11-21T11:57:16.780Z,96.36
2017-11-21T11:58:19.479Z,95.62
2017-11-21T11:59:22.130Z,95.94
2017-11-21T12:00:24.795Z,95.91
2017-11-21T12:01:27.628Z,96.20
2017-11-21T12:02:30.312Z,96.11
2017-11-21T12:03:33.449Z,96.36
2017-11-21T12:04:36.091Z,96.52
2017-11-21T12:05:38.748Z,96.52
2017-11-21T12:06:41.389Z,96.55
2017-11-21T12:07:44.061Z,96.63
2017-11-21T12:08:46.785Z,96.30
2017-11-21T12:09:49.824Z,96.45
2017-11-21T12:10:52.490Z,96.47
2017-11-21T12:11:55.169Z,96.81
2017-11-21T12:12:57.896Z,96.60
2017-11-21T12:14:00.604Z,96.68
2017-11-21T12:15:03.244Z,96.61
2017-11-21T12:16:06.406Z,96.57
2017-11-21T12:17:09.036Z,96.29
2017-11-21T12:18:11.726Z,96.69
2017-11-21T12:19:14.439Z,96.73
2017-11-21T12:20:17.114Z,96.61
2017-11-21T12:21:19.753Z,96.58
2017-11-21T12:22:22.426Z,96.37
2017-11-21T12:23:25.103Z,96.52
2017-11-21T12:24:27.860Z,96.62
2017-11-21T12:25:30.544Z,96.37
2017-11-21T12:26:33.221Z,96.27
2017-11-21T12:27:36.178Z,96.48
2017-11-21T12:28:38.833Z,96.28
2017-11-21T12:29:41.467Z,95.98
2017-11-21T12:30:44.129Z,96.37
2017-11-21T12:31:46.763Z,96.40
2017-11-21T12:32:49.419Z,96.23
2017-11-21T12:33:52.538Z,96.22
2017-11-21T12:34:55.446Z,96.47
2017-11-21T12:35:58.052Z,96.61
2017-11-21T12:37:00.792Z,96.78
2017-11-21T12:38:03.444Z,96.45
2017-11-21T12:39:06.150Z,96.81
2017-11-21T12:40:09.143Z,96.62
2017-11-21T12:41:11.867Z,96.86
2017-11-21T12:42:14.597Z,96.71
2017-11-21T12:43:17.245Z,96.80
2017-11-21T12:44:19.853Z,96.70
2017-11-21T12:45:22.442Z,96.85
2017-11-21T12:46:25.613Z,96.82
2017-11-21T12:47:28.287Z,96.83
2017-11-21T12:48:30.992Z,96.88
2017-11-21T12:49:33.673Z,96.73
2017-11-21T12:50:36.334Z,96.96
2017-11-21T12:51:39.005Z,97.21
2017-11-21T12:52:42.026Z,97.33
2017-11-21T12:53:44.694Z,97.10
2017-11-21T12:54:47.332Z,97.04
2017-11-21T12:55:50.044Z,96.93
2017-11-21T12:56:53.283Z,96.94
2017-11-21T12:57:56.073Z,96.40
2017-11-21T12:58:58.991Z,96.68
2017-11-21T13:00:01.709Z,96.23
2017-11-21T13:01:04.390Z,96.69
2017-11-21T13:02:07.084Z,96.70
2017-11-21T13:03:09.722Z,97.03
2017-11-21T13:04:12.893Z,97.20
2017-11-21T13:05:15.645Z,97.10
2017-11-21T13:06:18.277Z,96.80
2017-11-21T13:07:21.001Z,96.94
2017-11-21T13:08:24.619Z,96.83
2017-11-21T13:09:27.603Z,97.16
2017-11-21T13:10:30.695Z,96.89
2017-11-21T13:11:33.489Z,96.82
2017-11-21T13:12:36.218Z,96.97
2017-11-21T13:13:38.903Z,96.51
2017-11-21T13:14:41.579Z,96.81
2017-11-21T13:15:44.266Z,97.01
2017-11-21T13:16:47.334Z,96.86
2017-11-21T13:17:49.961Z,96.99
2017-11-21T13:18:52.654Z,96.95
2017-11-21T13:19:55.305Z,96.87
2017-11-21T13:20:57.927Z,97.01
2017-11-21T13:22:00.555Z,97.09
2017-11-21T13:23:03.670Z,97.14
2017-11-21T13:24:06.402Z,97.11
2017-11-21T13:25:09.118Z,97.05
2017-11-21T13:26:11.788Z,96.97
2017-11-21T13:27:14.410Z,96.91
2017-11-21T13:28:17.105Z,97.10
2017-11-21T13:29:20.055Z,97.00
2017-11-21T13:30:22.834Z,97.07
2017-11-21T13:31:25.488Z,97.11
2017-11-21T13:32:28.194Z,97.14
2017-11-21T13:33:30.877Z,96.99
2017-11-21T13:34:33.670Z,96.91
2017-11-21T13:35:36.649Z,96.89
2017-11-21T13:36:39.328Z,96.81
2017-11-21T13:37:42.020Z,96.97
2017-11-21T13:38:44.800Z,97.00
2017-11-21T13:39:47.887Z,97.14
2017-11-21T13:40:50.603Z,97.17
2017-11-21T13:41:53.659Z,97.11
2017-11-21T13:42:56.351Z,96.97
2017-11-21T13:43:58.952Z,97.13
2017-11-21T13:45:01.644Z,97.30
2017-11-21T13:46:04.339Z,97.07
2017-11-21T13:47:06.975Z,96.62
2017-11-21T13:48:09.902Z,96.69
2017-11-21T13:49:12.590Z,96.96
2017-11-21T13:50:15.296Z,97.02
2017-11-21T13:51:18.012Z,97.20
2017-11-21T13:52:20.666Z,96.65
2017-11-21T13:53:23.326Z,96.72
2017-11-21T13:54:26.319Z,96.87
2017-11-21T13:55:28.934Z,96.88
2017-11-21T13:56:31.593Z,97.03
2017-11-21T13:57:34.343Z,97.15
2017-11-21T13:58:36.981Z,97.27
2017-11-21T13:59:39.977Z,97.16
2017-11-21T14:00:43.151Z,97.05